Time;durP1;ratioP1;P1;durP2;ratioP2;P2;SDS_P1;SDS_P2;PMS_P1;PMS_P2;Temp;Humidity;BMP_temperature;BMP_pressure;BME280_temperature;BME280_humidity;BME280_pressure;Samples;Min_cycle;Max_cycle;Signal;HPM_P1;HPM_P2
2024/03/05 00:01:50;;;;;;;16.40;13.98;;;;;;;7.16;100.00;101136.13;5280789;28;20031;-77
2024/03/05 00:04:22;;;;;;;15.75;13.98;;;;;;;7.17;100.00;101137.81;5279378;28;20036;-75
2024/03/05 00:06:54;;;;;;;15.70;14.00;;;;;;;7.19;100.00;101141.97;5263825;28;20154;-75
2024/03/05 00:09:26;;;;;;;16.48;14.23;;;;;;;7.19;100.00;101139.38;5281855;28;20038;-74
2024/03/05 00:11:58;;;;;;;17.67;15.00;;;;;;;7.15;100.00;101134.47;5282284;28;20028;-76
2024/03/05 00:14:31;;;;;;;17.48;13.52;;;;;;;7.11;100.00;101135.59;5283957;28;20474;-77
2024/03/05 00:17:03;;;;;;;16.25;14.43;;;;;;;7.08;100.00;101139.22;5282536;28;20028;-77
2024/03/05 00:19:36;;;;;;;17.75;14.85;;;;;;;7.04;100.00;101138.59;5282506;28;20054;-77
2024/03/05 00:22:08;;;;;;;17.15;14.02;;;;;;;7.09;100.00;101142.69;5287615;28;20027;-76
2024/03/05 00:24:40;;;;;;;15.98;14.30;;;;;;;7.06;100.00;101134.13;5285884;28;20042;-76
2024/03/05 00:27:11;;;;;;;16.67;14.73;;;;;;;6.99;100.00;101125.03;5283442;28;20035;-77
2024/03/05 00:29:43;;;;;;;18.00;15.45;;;;;;;6.97;100.00;101137.34;5285539;28;20024;-77
2024/03/05 00:32:15;;;;;;;17.42;15.38;;;;;;;6.93;100.00;101132.41;5288575;28;20051;-76
2024/03/05 00:34:47;;;;;;;17.20;14.25;;;;;;;6.88;100.00;101130.13;5287963;28;20031;-76
2024/03/05 00:37:19;;;;;;;16.38;14.60;;;;;;;6.94;100.00;101127.13;5286553;28;20038;-75
2024/03/05 00:39:51;;;;;;;17.27;13.77;;;;;;;6.85;100.00;101132.09;5285523;28;20746;-75
2024/03/05 00:42:23;;;;;;;16.17;14.48;;;;;;;6.84;100.00;101131.25;5285409;28;20698;-77
2024/03/05 00:44:55;;;;;;;18.70;15.38;;;;;;;6.83;100.00;101138.22;5287398;28;20031;-77
2024/03/05 00:47:29;;;;;;;16.15;14.10;;;;;;;6.88;100.00;101132.72;5287131;28;20036;-75
2024/03/05 00:50:05;;;;;;;17.80;14.63;;;;;;;6.81;100.00;101131.44;5280500;28;21171;-76
2024/03/05 00:52:37;;;;;;;18.20;15.65;;;;;;;6.83;100.00;101130.41;5285746;28;20024;-77
2024/03/05 00:55:09;;;;;;;17.50;15.63;;;;;;;6.81;100.00;101134.88;5287360;28;20039;-76
2024/03/05 00:57:41;;;;;;;17.38;15.52;;;;;;;6.81;100.00;101134.88;5287264;28;20439;-75
2024/03/05 01:00:13;;;;;;;18.95;16.83;;;;;;;6.83;100.00;101129.59;5264989;28;20202;-75
2024/03/05 01:02:45;;;;;;;18.53;15.73;;;;;;;6.97;100.00;101131.28;5285199;28;20039;-77
2024/03/05 01:05:18;;;;;;;17.27;14.90;;;;;;;6.97;100.00;101126.94;5285244;28;20489;-75
2024/03/05 01:07:50;;;;;;;19.55;16.08;;;;;;;7.02;100.00;101126.63;5266351;28;20036;-76
2024/03/05 01:17:19;;;;;;;19.13;16.05;;;;;;;7.18;100.00;101131.66;5290053;28;20040;-76
2024/03/05 01:19:51;;;;;;;21.42;16.38;;;;;;;7.15;100.00;101130.09;5278296;28;20060;-77
2024/03/05 01:22:22;;;;;;;19.48;16.55;;;;;;;7.15;100.00;101122.25;5265210;28;20037;-75
2024/03/05 01:24:55;;;;;;;19.98;17.27;;;;;;;7.17;100.00;101123.00;5287057;28;20474;-76
2024/03/05 01:27:27;;;;;;;21.88;17.85;;;;;;;7.22;100.00;101117.50;5288074;28;20054;-77
2024/03/05 01:29:59;;;;;;;21.52;18.40;;;;;;;7.26;100.00;101113.75;5281615;28;20389;-77
2024/03/05 01:32:32;;;;;;;18.95;16.63;;;;;;;7.26;100.00;101113.75;5285894;28;20051;-77
2024/03/05 01:35:10;;;;;;;21.75;18.38;;;;;;;7.38;100.00;101112.91;5288167;28;20027;-77
2024/03/05 01:37:42;;;;;;;20.35;17.42;;;;;;;7.34;100.00;101111.44;5284984;28;20268;-75
2024/03/05 01:40:14;;;;;;;19.67;17.35;;;;;;;7.35;100.00;101110.53;5285661;28;20043;-76
2024/03/05 01:42:46;;;;;;;22.75;17.92;;;;;;;7.45;100.00;101111.56;5283032;28;20035;-75
2024/03/05 01:45:18;;;;;;;18.80;16.70;;;;;;;7.44;100.00;101115.13;5288069;28;20580;-77
2024/03/05 01:47:51;;;;;;;20.60;17.63;;;;;;;7.48;100.00;101113.97;5285836;28;20040;-77
2024/03/05 01:50:23;;;;;;;21.40;17.88;;;;;;;7.48;100.00;101113.97;5284558;28;20490;-77
2024/03/05 01:52:57;;;;;;;21.55;17.45;;;;;;;7.59;100.00;101115.84;5286847;28;20044;-77
2024/03/05 01:55:29;;;;;;;24.08;18.42;;;;;;;7.55;100.00;101112.63;5284663;28;20040;-77
2024/03/05 01:58:03;;;;;;;26.95;20.73;;;;;;;7.42;100.00;101111.78;5287661;28;20053;-77
2024/03/05 02:00:39;;;;;;;24.25;20.20;;;;;;;7.52;100.00;101112.00;5283422;28;20875;-76
2024/03/05 02:03:11;;;;;;;23.42;19.63;;;;;;;7.50;100.00;101106.03;5285337;28;20047;-77
2024/03/05 02:05:44;;;;;;;25.98;20.67;;;;;;;7.58;100.00;101106.38;5286682;28;20542;-76
2024/03/05 02:08:16;;;;;;;;;;;;;;;8.25;100.00;101106.06;5283211;28;20460;-75
2024/03/05 02:10:48;;;;;;;29.05;21.48;;;;;;;7.67;100.00;101097.91;5286183;28;19915;-76
2024/03/05 02:13:20;;;;;;;28.33;21.50;;;;;;;7.67;100.00;101100.53;5286721;28;20024;-76
2024/03/05 02:15:53;;;;;;;28.43;21.93;;;;;;;7.72;100.00;101101.03;5287363;28;20027;-77
2024/03/05 02:18:26;;;;;;;30.35;23.25;;;;;;;7.74;100.00;101096.56;5283820;28;20466;-77
2024/03/05 02:21:02;;;;;;;27.77;23.15;;;;;;;7.80;100.00;101075.28;5284507;28;20036;-77
2024/03/05 02:23:34;;;;;;;30.50;23.58;;;;;;;7.77;100.00;101091.13;5285819;28;20028;-77
2024/03/05 02:26:06;;;;;;;29.02;23.52;;;;;;;7.84;100.00;101086.34;5284163;28;20235;-77
2024/03/05 02:28:39;;;;;;;33.20;25.95;;;;;;;7.91;100.00;101089.31;5284716;28;20191;-75
2024/03/05 02:31:11;;;;;;;32.05;24.08;;;;;;;7.93;100.00;101103.13;5286123;28;20023;-77
2024/03/05 02:33:44;;;;;;;32.47;25.40;;;;;;;7.92;100.00;101099.69;5284981;28;20036;-77
2024/03/05 02:36:16;;;;;;;33.67;25.25;;;;;;;8.01;100.00;101099.03;5286928;28;20020;-77
2024/03/05 02:38:50;;;;;;;34.03;25.48;;;;;;;8.06;100.00;101106.53;5284533;28;20035;-76
2024/03/05 02:41:22;;;;;;;35.15;26.20;;;;;;;8.04;100.00;101101.41;5282318;28;20043;-76
2024/03/05 02:43:55;;;;;;;32.33;26.45;;;;;;;8.09;100.00;101100.25;5284560;28;20292;-76
2024/03/05 02:46:28;;;;;;;31.48;24.92;;;;;;;8.12;100.00;101100.06;5284930;28;20035;-76
2024/03/05 02:49:00;;;;;;;36.47;26.58;;;;;;;8.14;100.00;101101.59;5284243;28;20047;-76
2024/03/05 02:51:31;;;;;;;36.55;27.42;;;;;;;8.14;100.00;101098.97;5267473;28;20040;-75
2024/03/05 02:54:03;;;;;;;35.63;27.10;;;;;;;8.21;100.00;101099.38;5284854;28;20039;-77
2024/03/05 02:56:35;;;;;;;35.60;27.25;;;;;;;8.21;100.00;101094.16;5281641;28;20055;-77
2024/03/05 02:59:07;;;;;;;36.13;26.77;;;;;;;8.25;100.00;101098.22;5285651;28;20353;-75
2024/03/05 03:01:39;;;;;;;31.50;25.85;;;;;;;8.26;100.00;101099.91;5283599;28;20514;-77
2024/03/05 03:04:11;;;;;;;34.33;25.83;;;;;;;8.26;100.00;101098.13;5285683;28;20028;-77
2024/03/05 03:06:43;;;;;;;34.90;26.77;;;;;;;8.30;100.00;101098.75;5284372;28;20032;-77
2024/03/05 03:09:15;;;;;;;35.47;26.67;;;;;;;8.33;100.00;101108.13;5286670;28;20043;-77
2024/03/05 03:11:47;;;;;;;34.25;27.63;;;;;;;8.28;100.00;101092.78;5284924;28;20643;-77
2024/03/05 03:14:20;;;;;;;33.25;26.52;;;;;;;8.40;100.00;101099.78;5275463;28;20043;-77
2024/03/05 03:16:54;;;;;;;35.65;27.75;;;;;;;8.44;100.00;101108.22;5276697;28;20040;-75
2024/03/05 03:19:26;;;;;;;35.10;27.02;;;;;;;8.50;100.00;101107.81;5265336;28;20051;-76
2024/03/05 03:21:57;;;;;;;35.33;27.50;;;;;;;8.50;100.00;101097.34;5279398;28;20036;-77
2024/03/05 03:24:29;;;;;;;36.55;28.23;;;;;;;8.49;100.00;101103.53;5284337;28;20042;-77
2024/03/05 03:27:01;;;;;;;39.08;29.90;;;;;;;8.52;100.00;101100.66;5286235;28;20032;-76
2024/03/05 03:29:34;;;;;;;36.28;27.52;;;;;;;8.53;100.00;101103.19;5282653;28;20142;-76
2024/03/05 03:32:12;;;;;;;36.28;27.02;;;;;;;8.54;100.00;101101.41;5282596;28;20032;-77
2024/03/05 03:34:43;;;;;;;37.22;29.83;;;;;;;8.57;100.00;101095.97;5284590;28;20153;-77
2024/03/05 03:37:15;;;;;;;36.50;28.08;;;;;;;8.59;100.00;101101.06;5284730;28;20406;-77
2024/03/05 03:39:47;;;;;;;36.53;27.73;;;;;;;8.58;100.00;101102.03;5284527;28;20040;-77
2024/03/05 03:42:19;;;;;;;36.40;27.45;;;;;;;8.60;100.00;101102.72;5282936;28;20032;-75
2024/03/05 03:44:51;;;;;;;35.28;28.35;;;;;;;8.61;100.00;101101.81;5281687;28;20028;-76
2024/03/05 03:47:23;;;;;;;36.70;28.17;;;;;;;8.66;100.00;101107.53;5284262;28;20035;-77
2024/03/05 03:49:55;;;;;;;38.30;27.77;;;;;;;8.67;100.00;101103.94;5284451;28;20141;-77
2024/03/05 03:52:27;;;;;;;34.72;27.65;;;;;;;8.69;100.00;101110.75;5284062;28;20046;-77
2024/03/05 03:54:59;;;;;;;37.38;28.80;;;;;;;8.68;100.00;101100.41;5286326;28;20027;-77
2024/03/05 03:57:32;;;;;;;34.30;27.52;;;;;;;8.74;100.00;101113.03;5290323;28;20058;-77
2024/03/05 04:00:07;;;;;;;37.63;28.42;;;;;;;8.74;100.00;101092.94;5288787;28;20059;-75
2024/03/05 04:02:40;;;;;;;36.95;28.38;;;;;;;8.78;100.00;101107.44;5286333;28;20036;-77
2024/03/05 04:05:12;;;;;;;37.20;29.40;;;;;;;8.83;100.00;101114.97;5285998;28;20027;-77
2024/03/05 04:07:44;;;;;;;36.00;29.08;;;;;;;8.85;100.00;101115.69;5290637;28;20468;-77
2024/03/05 04:10:16;;;;;;;33.03;26.92;;;;;;;8.86;100.00;101113.91;5286645;28;20032;-77
2024/03/05 04:12:49;;;;;;;35.47;27.48;;;;;;;8.87;100.00;101112.97;5284045;28;20028;-77
2024/03/05 04:15:21;;;;;;;34.75;28.70;;;;;;;8.87;100.00;101113.81;5288839;28;20028;-75
2024/03/05 04:17:53;;;;;;;35.90;28.10;;;;;;;8.92;100.00;101116.06;5283832;28;20488;-77
2024/03/05 04:20:26;;;;;;;31.88;26.85;;;;;;;8.86;100.00;101122.56;5284723;28;20028;-75
2024/03/05 04:22:58;;;;;;;34.28;27.30;;;;;;;8.87;100.00;101116.41;5285108;28;20051;-76
2024/03/05 04:25:35;;;;;;;34.30;27.35;;;;;;;8.90;100.00;101116.19;5283490;28;20043;-76
2024/03/05 04:28:12;;;;;;;32.28;27.52;;;;;;;8.94;100.00;101103.72;5286233;28;20031;-75
2024/03/05 04:30:48;;;;;;;32.15;27.23;;;;;;;8.95;100.00;101119.28;5279274;28;20040;-75
2024/03/05 04:33:20;;;;;;;31.63;27.10;;;;;;;8.96;100.00;101122.75;5289431;28;20030;-75
2024/03/05 04:35:52;;;;;;;34.45;27.15;;;;;;;8.97;100.00;101120.00;5279314;28;20036;-75
2024/03/05 04:38:26;;;;;;;30.73;26.40;;;;;;;9.00;100.00;101122.38;5283368;28;20310;-75
2024/03/05 04:40:58;;;;;;;33.50;26.98;;;;;;;8.98;100.00;101118.25;5289782;28;20032;-75
2024/03/05 04:43:30;;;;;;;31.92;27.27;;;;;;;9.00;100.00;101122.38;5284697;28;20032;-75
2024/03/05 04:46:03;;;;;;;32.92;27.60;;;;;;;9.04;100.00;101125.63;5288357;28;20019;-75
2024/03/05 04:48:35;;;;;;;30.17;25.17;;;;;;;9.02;100.00;101133.59;5286792;28;20039;-75
2024/03/05 04:51:08;;;;;;;33.88;26.48;;;;;;;8.94;100.00;101135.06;5285746;28;20306;-75
2024/03/05 04:53:40;;;;;;;;;;;;;;;9.63;100.00;101136.00;5287920;28;20438;-75
2024/03/05 04:56:12;;;;;;;29.13;24.67;;;;;;;9.07;100.00;101140.25;5289538;28;19923;-76
2024/03/05 04:58:45;;;;;;;28.60;24.60;;;;;;;9.04;100.00;101140.47;5286131;28;20505;-75
2024/03/05 05:01:17;;;;;;;;;;;;;;;9.71;100.00;101138.03;5288684;28;20158;-75
2024/03/05 05:03:49;;;;;;;28.73;23.63;;;;;;;9.09;100.00;101141.81;5267669;28;19954;-75
2024/03/05 05:06:21;;;;;;;30.08;25.05;;;;;;;9.05;100.00;101139.50;5287799;28;20191;-75
2024/03/05 05:08:53;;;;;;;29.35;25.92;;;;;;;9.07;100.00;101137.63;5285326;28;20032;-75
2024/03/05 05:11:25;;;;;;;29.10;24.50;;;;;;;9.07;100.00;101143.69;5288362;28;20035;-75
2024/03/05 05:13:56;;;;;;;30.55;25.33;;;;;;;9.06;100.00;101135.97;5283541;28;20040;-75
2024/03/05 05:16:28;;;;;;;28.70;24.45;;;;;;;9.05;100.00;101137.72;5288379;28;20293;-75
2024/03/05 05:19:04;;;;;;;27.60;24.58;;;;;;;9.07;100.00;101135.03;5288065;28;20040;-76
2024/03/05 05:21:36;;;;;;;24.98;22.27;;;;;;;9.10;100.00;101134.81;5288100;28;20802;-75
2024/03/05 05:24:09;;;;;;;25.63;22.17;;;;;;;9.08;100.00;101139.28;5284511;28;20047;-75
2024/03/05 05:26:42;;;;;;;24.77;22.17;;;;;;;9.09;100.00;101138.34;5285742;28;20106;-75
2024/03/05 05:29:14;;;;;;;25.42;22.73;;;;;;;9.11;100.00;101136.47;5288158;28;20470;-75
2024/03/05 05:31:46;;;;;;;23.80;21.27;;;;;;;9.08;100.00;101136.69;5288028;28;20036;-75
2024/03/05 05:34:18;;;;;;;23.80;20.52;;;;;;;9.11;100.00;101136.47;5280238;28;20043;-76
2024/03/05 05:36:50;;;;;;;23.88;21.38;;;;;;;9.12;100.00;101143.34;5284437;28;20042;-77
2024/03/05 05:39:24;;;;;;;22.50;20.02;;;;;;;9.12;100.00;101143.34;5284776;28;20470;-77
2024/03/05 05:41:56;;;;;;;23.38;20.08;;;;;;;9.11;100.00;101137.28;5285577;28;20505;-76
2024/03/05 05:44:29;;;;;;;21.70;19.50;;;;;;;9.07;100.00;101138.47;5284273;28;20028;-76
2024/03/05 05:47:03;;;;;;;21.35;19.23;;;;;;;9.08;100.00;101139.28;5284667;28;20032;-76
2024/03/05 05:49:36;;;;;;;21.83;19.35;;;;;;;9.12;100.00;101145.97;5283528;28;20379;-75
2024/03/05 05:52:08;;;;;;;22.77;20.38;;;;;;;9.08;100.00;101142.72;5281529;28;20043;-78
2024/03/05 05:54:43;;;;;;;21.95;19.02;;;;;;;9.08;100.00;101134.06;5286533;28;20032;-75
2024/03/05 05:57:15;;;;;;;20.77;18.67;;;;;;;9.07;100.00;101135.84;5279965;28;20040;-76
2024/03/05 05:59:48;;;;;;;20.50;18.27;;;;;;;9.09;100.00;101143.56;5286438;28;20101;-77
2024/03/05 06:02:21;;;;;;;21.88;17.40;;;;;;;9.11;100.00;101142.50;5284818;28;20035;-76
2024/03/05 06:04:52;;;;;;;19.38;16.98;;;;;;;9.12;100.00;101149.41;5280197;28;20036;-78
2024/03/05 06:07:24;;;;;;;19.27;17.20;;;;;;;9.13;100.00;101150.22;5285956;28;20032;-75
2024/03/05 06:09:56;;;;;;;19.48;15.35;;;;;;;9.12;100.00;101148.56;5284505;28;20033;-75
2024/03/05 06:12:31;;;;;;;16.65;14.48;;;;;;;9.11;100.00;101154.75;5286512;28;20035;-76
2024/03/05 06:15:03;;;;;;;16.50;14.50;;;;;;;9.11;100.00;101152.13;5285662;28;20041;-78
2024/03/05 06:17:35;;;;;;;16.55;14.75;;;;;;;9.13;100.00;101145.88;5280432;28;20533;-75
2024/03/05 06:20:11;;;;;;;15.27;13.68;;;;;;;9.20;100.00;101154.88;5282705;28;20325;-76
2024/03/05 06:22:44;;;;;;;16.23;13.57;;;;;;;9.13;100.00;101156.31;5272232;28;20028;-75
2024/03/05 06:25:17;;;;;;;15.48;13.18;;;;;;;9.17;100.00;101162.16;5286342;28;20038;-76
2024/03/05 06:27:49;;;;;;;;;;;;;;;9.84;100.00;101154.44;5281797;28;20024;-78
2024/03/05 06:30:22;;;;;;;15.18;13.50;;;;;;;9.22;100.00;101160.03;5285926;28;19916;-76
2024/03/05 06:32:54;;;;;;;17.98;14.02;;;;;;;9.20;100.00;101167.97;5282624;28;20421;-78
2024/03/05 06:35:29;;;;;;;16.50;13.20;;;;;;;9.17;100.00;101165.59;5286353;28;20055;-77
2024/03/05 06:38:02;;;;;;;15.57;13.35;;;;;;;9.16;100.00;101170.91;5285457;28;20226;-77
2024/03/05 06:40:36;;;;;;;15.90;13.02;;;;;;;9.14;100.00;101157.97;5285490;28;20023;-76
2024/03/05 06:43:20;;;;;;;14.35;12.45;;;;;;;9.20;100.00;101167.13;5287303;28;20393;-76
2024/03/05 06:45:52;;;;;;;16.73;12.60;;;;;;;9.21;100.00;101166.22;5285013;28;20228;-76
2024/03/05 06:48:26;;;;;;;14.73;12.43;;;;;;;9.22;100.00;101166.09;5288210;28;20128;-76
2024/03/05 06:51:01;;;;;;;13.43;12.02;;;;;;;9.25;100.00;101171.09;5287087;28;20032;-79
2024/03/05 06:56:40;;;;;;;16.70;12.90;;;;;;;9.26;100.00;101171.91;5245916;28;20044;-77
2024/03/05 06:59:12;;;;;;;13.50;11.90;;;;;;;9.25;100.00;101178.09;5249241;28;20048;-77
2024/03/05 07:01:44;;;;;;;14.63;11.40;;;;;;;9.23;100.00;101172.97;5268460;28;20052;-77
2024/03/05 07:04:16;;;;;;;14.13;11.30;;;;;;;9.25;100.00;101175.50;5287450;28;20038;-77
2024/03/05 07:06:49;;;;;;;12.40;11.05;;;;;;;9.23;100.00;101183.44;5286055;28;20036;-76
2024/03/05 07:09:27;;;;;;;13.13;11.68;;;;;;;9.25;100.00;101183.34;5287174;28;20366;-79
2024/03/05 07:11:59;;;;;;;15.45;11.85;;;;;;;9.25;100.00;101178.09;5286387;28;20024;-77
2024/03/05 07:14:32;;;;;;;16.80;12.43;;;;;;;9.29;100.00;101184.78;5287658;28;20059;-77
2024/03/05 07:17:04;;;;;;;13.30;11.83;;;;;;;9.33;100.00;101182.75;5285458;28;20667;-76
2024/03/05 07:19:37;;;;;;;13.27;11.65;;;;;;;9.34;100.00;101182.63;5286081;28;20402;-77
2024/03/05 07:22:11;;;;;;;14.18;12.38;;;;;;;9.35;100.00;101191.31;5288679;28;20040;-78
2024/03/05 07:24:43;;;;;;;13.73;11.18;;;;;;;9.31;100.00;101193.31;5266895;28;20040;-76
2024/03/05 07:27:15;;;;;;;12.93;11.63;;;;;;;9.32;100.00;101187.16;5283546;28;20036;-76
2024/03/05 07:29:47;;;;;;;13.93;12.60;;;;;;;9.32;100.00;101186.31;5285832;28;20024;-76
2024/03/05 07:32:19;;;;;;;13.63;12.20;;;;;;;9.34;100.00;101194.88;5288098;28;20024;-79
2024/03/05 07:34:51;;;;;;;14.75;11.55;;;;;;;9.33;100.00;101194.06;5286687;28;20053;-77
2024/03/05 07:37:23;;;;;;;12.93;10.98;;;;;;;9.35;100.00;101192.13;5286170;28;20567;-77
2024/03/05 07:39:54;;;;;;;14.70;11.70;;;;;;;9.38;100.00;101196.31;5285645;28;20032;-76
2024/03/05 07:42:26;;;;;;;13.55;12.15;;;;;;;9.38;100.00;101191.09;5285138;28;20028;-80
2024/03/05 07:44:58;;;;;;;14.18;11.85;;;;;;;9.40;100.00;101197.06;5286366;28;20195;-78
2024/03/05 07:47:30;;;;;;;12.80;11.27;;;;;;;9.46;100.00;101189.56;5286151;28;20420;-76
2024/03/05 07:50:02;;;;;;;13.68;11.88;;;;;;;9.45;100.00;101195.75;5285990;28;20039;-76
2024/03/05 07:52:34;;;;;;;14.07;12.23;;;;;;;9.46;100.00;101197.41;5286280;28;20496;-76
2024/03/05 07:55:14;;;;;;;16.70;12.38;;;;;;;9.61;100.00;101198.06;5285085;28;20036;-79
2024/03/05 07:57:49;;;;;;;12.63;11.30;;;;;;;9.50;100.00;101196.22;5278280;28;20062;-77
2024/03/05 08:00:21;;;;;;;14.05;12.55;;;;;;;9.50;100.00;101198.84;5286191;28;20024;-76
2024/03/05 08:02:53;;;;;;;14.43;12.10;;;;;;;9.54;100.00;101203.84;5285685;28;20365;-75
2024/03/05 08:05:25;;;;;;;13.43;11.57;;;;;;;9.52;100.00;101203.16;5285579;28;20085;-78
2024/03/05 08:07:58;;;;;;;14.68;11.45;;;;;;;9.52;100.00;101211.00;5282650;28;20268;-79
2024/03/05 08:10:34;;;;;;;15.73;12.23;;;;;;;9.50;100.00;101188.38;5283691;28;20035;-75
2024/03/05 08:13:07;;;;;;;13.00;11.60;;;;;;;9.60;100.00;101206.84;5286236;28;20051;-75
2024/03/05 08:15:38;;;;;;;13.68;12.13;;;;;;;9.65;100.00;101209.94;5287143;28;20040;-75
2024/03/05 08:18:13;;;;;;;12.55;11.15;;;;;;;9.62;100.00;101204.97;5283511;28;20034;-77
2024/03/05 08:20:45;;;;;;;13.45;11.90;;;;;;;9.65;100.00;101212.56;5285500;28;20060;-78
2024/03/05 08:23:17;;;;;;;12.02;10.73;;;;;;;9.70;100.00;101214.84;5285329;28;20032;-75
2024/03/05 08:25:49;;;;;;;12.38;11.07;;;;;;;9.71;100.00;101213.91;5286793;28;20501;-76
2024/03/05 08:28:21;;;;;;;14.35;11.55;;;;;;;9.71;100.00;101219.13;5287335;28;20025;-76
2024/03/05 08:30:53;;;;;;;13.30;11.70;;;;;;;9.64;100.00;101203.06;5281688;28;20032;-76
2024/03/05 08:33:25;;;;;;;15.10;12.07;;;;;;;9.80;100.00;101228.91;5287399;28;20024;-76
2024/03/05 08:35:57;;;;;;;14.60;11.45;;;;;;;9.77;100.00;101226.50;5285279;28;20504;-77
2024/03/05 08:38:29;;;;;;;14.48;12.02;;;;;;;9.73;100.00;101223.28;5284309;28;20021;-75
2024/03/05 08:41:01;;;;;;;13.23;11.32;;;;;;;9.80;100.00;101228.06;5290812;28;20066;-75
2024/03/05 08:43:33;;;;;;;18.77;11.32;;;;;;;9.76;100.00;101232.69;5290835;28;20054;-75
2024/03/05 08:46:08;;;;;;;14.02;12.15;;;;;;;9.81;100.00;101230.59;5289982;28;20028;-76
2024/03/05 08:48:40;;;;;;;13.68;11.88;;;;;;;9.75;100.00;101231.88;5284809;28;20035;-79
2024/03/05 08:51:12;;;;;;;14.20;11.13;;;;;;;9.79;100.00;101237.69;5291217;28;20385;-78
2024/03/05 08:53:44;;;;;;;12.98;11.57;;;;;;;9.83;100.00;101244.38;5289674;28;20035;-76
2024/03/05 08:56:16;;;;;;;12.73;11.18;;;;;;;9.87;100.00;101244.97;5290644;28;20486;-75
2024/03/05 08:58:48;;;;;;;16.08;12.10;;;;;;;9.86;100.00;101251.16;5288049;28;20031;-79
2024/03/05 09:01:19;;;;;;;13.10;11.02;;;;;;;9.86;100.00;101248.56;5288925;28;20039;-78
2024/03/05 09:03:52;;;;;;;16.38;11.63;;;;;;;9.86;100.00;101251.16;5287875;28;20036;-78
2024/03/05 09:06:23;;;;;;;12.55;10.30;;;;;;;9.83;100.00;101252.22;5291562;28;20172;-78
2024/03/05 09:08:56;;;;;;;12.30;11.02;;;;;;;9.83;100.00;101257.44;5285186;28;20039;-76
2024/03/05 09:11:28;;;;;;;13.05;10.35;;;;;;;9.91;100.00;101256.88;5289531;28;20474;-78
2024/03/05 09:14:00;;;;;;;14.00;10.88;;;;;;;9.93;100.00;101257.63;5287566;28;20082;-76
2024/03/05 09:16:32;;;;;;;12.50;10.23;;;;;;;9.95;100.00;101261.75;5269393;28;20585;-76
2024/03/05 09:19:05;;;;;;;11.82;10.00;;;;;;;10.04;100.00;101262.88;5288855;28;20027;-75
2024/03/05 09:21:37;;;;;;;11.48;10.27;;;;;;;10.11;100.00;101258.81;5291030;28;20039;-75
2024/03/05 09:24:09;;;;;;;12.60;10.02;;;;;;;10.15;100.00;101265.50;5289321;28;20035;-76
2024/03/05 09:26:41;;;;;;;12.00;10.10;;;;;;;10.18;100.00;101264.41;5286713;28;20036;-76
2024/03/05 09:29:13;;;;;;;11.93;10.73;;;;;;;10.21;100.00;101266.81;5287439;28;20035;-77
2024/03/05 09:31:46;;;;;;;11.55;10.40;;;;;;;10.21;100.00;101264.19;5289523;28;20039;-75
2024/03/05 09:34:19;;;;;;;10.70;9.63;;;;;;;10.28;100.00;101268.03;5287271;28;20413;-76
2024/03/05 09:36:51;;;;;;;11.50;9.77;;;;;;;10.28;100.00;101264.59;5288930;28;20397;-75
2024/03/05 09:39:23;;;;;;;11.30;9.88;;;;;;;10.31;100.00;101266.97;5289225;28;20028;-75
2024/03/05 09:41:55;;;;;;;13.60;9.80;;;;;;;10.33;100.00;101265.88;5290988;28;20039;-76
2024/03/05 09:44:28;;;;;;;11.18;9.80;;;;;;;10.34;100.00;101271.97;5286601;28;20428;-77
2024/03/05 09:47:01;;;;;;;11.20;9.90;;;;;;;10.38;100.00;101268.16;5288137;28;20402;-78
2024/03/05 09:49:33;;;;;;;11.65;9.48;;;;;;;10.33;100.00;101265.06;5289358;28;20036;-76
2024/03/05 09:52:06;;;;;;;10.98;9.73;;;;;;;10.43;100.00;101279.13;5285822;28;20480;-76
2024/03/05 09:54:38;;;;;;;;;;;;;;;11.14;100.00;101269.16;5288604;28;20401;-77
2024/03/05 09:57:14;;;;;;;11.88;9.20;;;;;;;10.51;100.00;101268.06;5286472;28;20431;-78
2024/03/05 09:59:46;;;;;;;11.32;9.50;;;;;;;10.55;100.00;101279.97;5280327;28;20031;-76
2024/03/05 10:02:18;;;;;;;12.38;9.52;;;;;;;10.63;100.00;101285.44;5284466;28;20716;-79
2024/03/05 10:04:52;;;;;;;11.05;9.27;;;;;;;10.55;100.00;101272.94;5287288;28;20085;-76
2024/03/05 10:07:27;;;;;;;10.45;8.85;;;;;;;10.55;100.00;101278.16;5286518;28;20552;-75
2024/03/05 10:10:10;;;;;;;11.00;9.88;;;;;;;10.72;100.00;101292.59;5285055;28;20607;-75
2024/03/05 10:12:42;;;;;;;11.03;8.13;;;;;;;10.67;100.00;101292.09;5287037;28;20703;-77
2024/03/05 10:15:17;;;;;;;9.93;8.45;;;;;;;10.67;100.00;101298.16;5287982;28;20274;-77
2024/03/05 10:17:52;;;;;;;9.20;7.57;;;;;;;10.66;100.00;101293.06;5283247;28;20406;-76
2024/03/05 10:20:36;;;;;;;9.40;7.68;;;;;;;10.83;100.00;101295.16;5285858;28;20781;-78
2024/03/05 10:23:11;;;;;;;12.13;7.47;;;;;;;10.67;100.00;101292.09;5278221;28;20059;-76
2024/03/05 10:25:44;;;;;;;10.43;7.60;;;;;;;10.71;100.00;101289.09;5276484;28;20039;-75
2024/03/05 10:28:21;;;;;;;10.47;7.67;;;;;;;10.88;100.00;101282.56;5283314;28;20841;-77
2024/03/05 10:30:58;;;;;;;9.27;7.38;;;;;;;11.03;100.00;101282.31;5287205;28;20301;-78
2024/03/05 10:33:30;;;;;;;7.55;6.85;;;;;;;11.05;100.00;101288.25;5287329;28;20028;-76
2024/03/05 10:36:02;;;;;;;8.40;6.72;;;;;;;11.03;100.00;101295.41;5285070;28;20027;-77
2024/03/05 10:38:34;;;;;;;7.78;6.70;;;;;;;11.06;100.00;101297.75;5287870;28;20028;-76
2024/03/05 10:41:07;;;;;;;20.35;7.43;;;;;;;11.07;100.00;101297.66;5288285;28;20052;-76
2024/03/05 10:43:39;;;;;;;8.32;6.90;;;;;;;11.16;100.00;101301.31;5288643;28;20028;-77
2024/03/05 10:46:12;;;;;;;8.15;6.80;;;;;;;11.19;100.00;101306.34;5282941;28;20016;-76
2024/03/05 10:48:47;;;;;;;8.30;6.22;;;;;;;11.28;100.00;101305.59;5285503;28;20532;-75
2024/03/05 10:51:26;;;;;;;7.15;5.63;;;;;;;11.41;100.00;101308.91;5285165;28;20034;-75
2024/03/05 10:54:02;;;;;;;9.85;6.03;;;;;;;11.28;100.00;101302.13;5285142;28;20633;-75
2024/03/05 10:56:35;;;;;;;7.72;6.15;;;;;;;11.33;100.00;101307.88;5287004;28;20055;-77
2024/03/05 11:01:51;;;;;;;9.07;6.22;;;;;;;11.49;100.00;101310.06;5278925;28;20032;-76
2024/03/05 11:04:25;;;;;;;7.38;5.68;;;;;;;11.47;100.00;101315.44;5285875;28;20393;-75
2024/03/05 11:06:58;;;;;;;6.15;5.53;;;;;;;11.53;100.00;101314.94;5284080;28;20032;-76
2024/03/05 11:09:30;;;;;;;7.95;5.53;;;;;;;11.53;100.00;101314.94;5285791;28;20047;-75
2024/03/05 11:12:16;;;;;;;7.75;5.22;;;;;;;11.73;99.44;101315.94;5286669;28;20626;-77
2024/03/05 11:14:49;;;;;;;8.93;5.25;;;;;;;11.51;100.00;101322.09;5286466;28;20039;-76
2024/03/05 11:17:22;;;;;;;6.68;4.53;;;;;;;11.61;98.85;101320.41;5284337;28;20114;-76
2024/03/05 11:19:56;;;;;;;6.38;3.50;;;;;;;11.56;96.72;101313.88;5283979;28;20597;-78
2024/03/05 11:22:29;;;;;;;5.00;2.75;;;;;;;11.61;97.56;101314.31;5287443;28;20032;-76
2024/03/05 11:25:05;;;;;;;3.65;2.50;;;;;;;11.58;96.11;101315.38;5285771;28;20032;-76
2024/03/05 11:27:37;;;;;;;5.05;2.20;;;;;;;11.57;97.45;101299.78;5287697;28;20039;-76
2024/03/05 11:30:16;;;;;;;3.75;2.05;;;;;;;11.78;94.41;101312.91;5284781;28;20027;-76
2024/03/05 11:32:50;;;;;;;5.00;2.00;;;;;;;11.74;96.38;101319.38;5285888;28;20023;-75
2024/03/05 11:35:24;;;;;;;3.13;1.58;;;;;;;11.82;95.21;101309.94;5283190;28;20019;-76
2024/03/05 11:37:58;;;;;;;3.08;1.77;;;;;;;11.74;90.94;101322.00;5283397;28;20047;-76
2024/03/05 11:40:34;;;;;;;;;;;;;;;12.50;94.26;101317.41;5287455;28;20521;-76
2024/03/05 11:43:06;;;;;;;3.67;1.90;;;;;;;11.89;93.00;101316.38;5286494;28;20373;-77
2024/03/05 11:45:51;;;;;;;4.20;2.10;;;;;;;12.05;90.30;101315.94;5285491;28;20043;-79
2024/03/05 11:48:23;;;;;;;3.80;2.30;;;;;;;11.85;92.24;101312.31;5286552;28;20743;-75
2024/03/05 11:50:55;;;;;;;3.78;2.22;;;;;;;11.92;90.57;101308.22;5285872;28;20066;-78